This is the latest recevied weather packets stored in our database for station/object KL1IO. If no packets are shown the sender has not sent any weather packets the latest 1 day(s).
| Time | Temp. | Humidity | Pressure | Rain* | Wind** | Luminosity | Snow |
|---|---|---|---|---|---|---|---|
| 1836274744 | 10° C | 99% | 990 hPa | 0 mm | 0 m/s | 2 W/m² | - |
| 1836274441 | 10° C | 99% | 990 hPa | 0 mm | 0 m/s | 2 W/m² | - |
| 1836274295 | 10° C | 99% | 990.1 hPa | 0 mm | 0 m/s | 1 W/m² | - |
| 1836274140 | 10° C | 99% | 989.9 hPa | 0 mm | 0 m/s | 3 W/m² | - |
| 1778041077 | 2.78° C | 99% | 1013 hPa | 1.78 mm | 0 m/s | 24 W/m² | - |
| 1778040774 | 2.78° C | 99% | 1013.1 hPa | 0 mm | 0 m/s | 32 W/m² | - |
| 1778040471 | 2.78° C | 99% | 1013.1 hPa | 0 mm | 0 m/s | 40 W/m² | - |
| 1778040169 | 2.78° C | 99% | 1013 hPa | 1.27 mm | 0 m/s | 38 W/m² | - |
| 1778039865 | 3.33° C | 99% | 1012.8 hPa | 1.27 mm | 0 m/s | 38 W/m² | - |
| 1778039562 | 3.33° C | 99% | 1012.9 hPa | 1.78 mm | 0 m/s | 42 W/m² | - |
| 1778039259 | 3.33° C | 99% | 1012.9 hPa | 1.78 mm | 0 m/s | 38 W/m² | - |
| 1778038956 | 3.33° C | 99% | 1013 hPa | 0 mm | 0 m/s | 41 W/m² | - |
| 1778038653 | 3.33° C | 99% | 1013 hPa | 0 mm | 0 m/s | 42 W/m² | - |
| 1778038350 | 3.89° C | 99% | 1012.8 hPa | 1.27 mm | 0 m/s | 44 W/m² | - |
| 1778038047 | 3.89° C | 99% | 1012.9 hPa | 1.27 mm | 0 m/s | 46 W/m² | - |
| 1778037744 | 3.89° C | 99% | 1012.7 hPa | 0 mm | 0 m/s | 44 W/m² | - |
| 1778037440 | 3.89° C | 99% | 1012.7 hPa | 1.78 mm | 0 m/s | 41 W/m² | - |
| 1778037138 | 3.33° C | 99% | 1012.5 hPa | 1.78 mm | 0 m/s | 40 W/m² | - |
| 1778036836 | 3.89° C | 99% | 1012.7 hPa | 1.27 mm | 0 m/s | 38 W/m² | - |
| 1778036533 | 3.33° C | 99% | 1012.6 hPa | 1.78 mm | 0 m/s | 32 W/m² | - |
| 1778036230 | 3.33° C | 99% | 1012.8 hPa | 3.56 mm | 0 m/s | 30 W/m² | - |
| 1778035926 | 3.89° C | 99% | 1012.5 hPa | 3.05 mm | 0 m/s | 30 W/m² | - |
| 1778035624 | 3.89° C | 99% | 1012.5 hPa | 1.27 mm | 0 m/s | 30 W/m² | - |
| 1778035320 | 3.89° C | 99% | 1012.4 hPa | 1.78 mm | 0 m/s | 36 W/m² | - |
| 1778035016 | 3.89° C | 99% | 1012.5 hPa | 3.05 mm | 0 m/s | 41 W/m² | - |
* Rain latest hour (hover to see other rain measurements)
** Current wind speed in m/s (hover to see current wind gust speed)